createdAt,value
2019-02-12T00:01:09.701Z,0.72
2019-02-12T00:03:38.264Z,0.84
2019-02-12T00:06:06.852Z,0.93
2019-02-12T00:08:42.371Z,0.98
2019-02-12T00:11:10.900Z,1.02
2019-02-12T00:13:43.003Z,1.08
2019-02-12T00:16:11.627Z,1.12
2019-02-12T00:18:46.043Z,1.12
2019-02-12T00:21:15.162Z,1.20
2019-02-12T00:23:53.642Z,1.18
2019-02-12T00:26:24.093Z,1.20
2019-02-12T00:28:53.641Z,1.12
2019-02-12T00:31:24.222Z,1.14
2019-02-12T00:33:58.884Z,1.09
2019-02-12T00:36:33.361Z,1.13
2019-02-12T00:39:01.888Z,1.16
2019-02-12T00:41:31.390Z,1.13
2019-02-12T00:44:00.034Z,1.16
2019-02-12T00:46:39.547Z,1.18
2019-02-12T00:49:08.102Z,1.24
2019-02-12T00:51:51.842Z,1.27
2019-02-12T00:54:58.890Z,1.23
2019-02-12T00:57:29.429Z,1.23
2019-02-12T00:59:58.408Z,1.16
2019-02-12T01:02:27.961Z,1.13
2019-02-12T01:04:56.538Z,1.11
2019-02-12T01:07:27.017Z,1.08
2019-02-12T01:09:56.458Z,1.09
2019-02-12T01:12:25.596Z,1.08
2019-02-12T01:14:55.239Z,1.00
2019-02-12T01:17:33.102Z,1.04
2019-02-12T01:20:02.261Z,0.87
2019-02-12T01:22:34.432Z,0.89
2019-02-12T01:25:03.018Z,0.85
2019-02-12T01:27:31.598Z,0.81
2019-02-12T01:30:00.223Z,0.87
2019-02-12T01:32:32.926Z,0.85
2019-02-12T01:35:01.519Z,0.88
2019-02-12T01:37:38.186Z,0.97
2019-02-12T01:40:06.901Z,1.09
2019-02-12T01:42:43.421Z,1.16
2019-02-12T01:45:12.619Z,1.17
2019-02-12T01:47:46.195Z,1.21
2019-02-12T01:50:15.691Z,1.25
2019-02-12T01:52:45.348Z,1.25
2019-02-12T01:55:22.428Z,1.29
2019-02-12T01:58:12.944Z,1.25
2019-02-12T02:00:41.607Z,1.38
2019-02-12T02:03:18.997Z,1.36
2019-02-12T02:05:49.534Z,1.31
2019-02-12T02:08:21.858Z,1.30
2019-02-12T02:10:50.857Z,1.30
2019-02-12T02:13:19.394Z,1.38
2019-02-12T02:15:51.862Z,1.30
2019-02-12T02:18:22.898Z,1.31
2019-02-12T02:20:52.006Z,1.32
2019-02-12T02:23:20.560Z,1.39
2019-02-12T02:25:54.455Z,1.38
2019-02-12T02:28:22.976Z,1.43
2019-02-12T02:30:52.012Z,1.29
2019-02-12T02:33:22.520Z,1.30
2019-02-12T02:36:15.648Z,1.27
2019-02-12T02:38:47.472Z,1.24
2019-02-12T02:41:24.349Z,1.31
2019-02-12T02:43:54.465Z,1.30
2019-02-12T02:46:23.020Z,1.35
2019-02-12T02:48:59.924Z,1.36
2019-02-12T02:51:28.467Z,1.25
2019-02-12T02:54:00.476Z,1.19
2019-02-12T02:56:29.600Z,1.19
2019-02-12T02:59:19.801Z,1.14
2019-02-12T03:01:50.245Z,1.06
2019-02-12T03:04:18.773Z,1.05
2019-02-12T03:06:50.418Z,1.10
2019-02-12T03:09:22.599Z,1.12
2019-02-12T03:16:45.044Z,1.01
2019-02-12T03:19:14.134Z,0.95
2019-02-12T03:21:44.207Z,0.91
2019-02-12T03:24:14.195Z,0.85
2019-02-12T03:26:54.407Z,0.83
2019-02-12T03:29:27.478Z,0.98
2019-02-12T03:31:56.555Z,1.00
2019-02-12T03:37:01.318Z,1.04
2019-02-12T03:39:30.360Z,1.06
2019-02-12T03:42:00.078Z,1.10
2019-02-12T03:44:30.207Z,1.09
2019-02-12T03:46:59.232Z,1.12
2019-02-12T03:52:12.606Z,1.14
2019-02-12T03:54:35.079Z,1.14
2019-02-12T03:57:04.129Z,1.19
2019-02-12T03:59:33.170Z,1.20
2019-02-12T04:02:03.291Z,1.16
2019-02-12T04:04:32.349Z,1.19
2019-02-12T04:07:01.404Z,1.20
2019-02-12T04:12:06.125Z,1.28
2019-02-12T04:14:36.387Z,1.26
2019-02-12T04:19:43.693Z,1.24
2019-02-12T04:22:22.300Z,1.16
2019-02-12T04:24:44.644Z,1.23
2019-02-12T04:27:13.678Z,1.28
2019-02-12T04:29:42.709Z,1.23
2019-02-12T04:32:12.718Z,1.25
2019-02-12T04:34:44.367Z,1.31
2019-02-12T04:37:14.412Z,1.31
2019-02-12T04:39:43.427Z,1.26
2019-02-12T04:42:15.444Z,1.24
2019-02-12T04:44:44.488Z,1.26
2019-02-12T04:47:15.183Z,1.23
2019-02-12T04:49:44.275Z,1.11
2019-02-12T04:52:13.367Z,1.08
2019-02-12T04:57:20.515Z,1.19
2019-02-12T04:59:49.578Z,1.17
2019-02-12T05:02:18.598Z,1.26
2019-02-12T05:04:47.643Z,1.29
2019-02-12T05:07:17.605Z,1.28
2019-02-12T05:09:46.969Z,1.37
2019-02-12T05:12:16.927Z,1.33
2019-02-12T05:17:21.773Z,1.23
2019-02-12T05:19:51.299Z,1.29
2019-02-12T05:22:21.273Z,1.25
2019-02-12T05:24:50.301Z,1.25
2019-02-12T05:27:20.693Z,1.26
2019-02-12T05:29:49.767Z,1.26
2019-02-12T05:32:18.798Z,1.26
2019-02-12T05:34:47.857Z,1.22
2019-02-12T05:37:16.880Z,1.20
2019-02-12T05:39:46.421Z,1.33
2019-02-12T05:42:16.459Z,1.29
2019-02-12T05:44:45.501Z,1.27
2019-02-12T05:47:15.471Z,1.35
2019-02-12T05:49:44.508Z,1.25
2019-02-12T05:52:16.381Z,1.19
2019-02-12T05:54:45.440Z,1.28
2019-02-12T05:57:14.484Z,1.35
2019-02-12T05:59:46.978Z,1.33
2019-02-12T06:02:14.797Z,1.35
2019-02-12T06:04:43.825Z,1.37
2019-02-12T06:07:16.364Z,1.50
2019-02-12T06:09:45.419Z,1.34
2019-02-12T06:12:17.251Z,1.31
2019-02-12T06:14:46.325Z,1.36
2019-02-12T06:17:16.359Z,1.24
2019-02-12T06:19:45.429Z,1.23
2019-02-12T06:22:15.284Z,1.09
2019-02-12T06:24:46.623Z,1.12
2019-02-12T06:27:16.934Z,1.14
2019-02-12T06:29:46.157Z,1.19
2019-02-12T06:32:16.007Z,1.16
2019-02-12T06:34:47.436Z,1.09
2019-02-12T06:37:16.972Z,1.03
2019-02-12T06:39:47.091Z,1.08
2019-02-12T06:42:16.083Z,1.02
2019-02-12T06:45:01.058Z,1.01
2019-02-12T06:47:31.540Z,1.10
2019-02-12T06:50:00.580Z,1.06
2019-02-12T06:52:30.921Z,1.08
2019-02-12T06:55:01.832Z,1.09
2019-02-12T06:57:33.457Z,1.00
2019-02-12T07:00:02.568Z,0.93
2019-02-12T07:02:52.635Z,1.00
2019-02-12T07:17:43.451Z,1.14
2019-02-12T07:20:19.291Z,1.20
2019-02-12T07:26:35.182Z,1.28
2019-02-12T07:41:20.443Z,1.38
2019-02-12T07:53:13.403Z,1.19
2019-02-12T07:55:48.163Z,1.18
2019-02-12T08:02:02.095Z,1.26
2019-02-12T08:10:35.693Z,1.47
2019-02-12T08:13:17.349Z,1.71
2019-02-12T08:16:17.886Z,1.68
2019-02-12T08:22:14.157Z,1.60
2019-02-12T08:25:13.683Z,1.45
2019-02-12T08:28:08.100Z,1.70
2019-02-12T08:30:44.377Z,1.84
2019-02-12T08:36:39.243Z,1.60
2019-02-12T08:42:32.263Z,1.75
2019-02-12T08:53:52.800Z,2.05
2019-02-12T08:56:24.779Z,2.05
2019-02-12T08:59:19.874Z,2.25
2019-02-12T09:01:56.507Z,2.43
2019-02-12T09:04:35.022Z,2.40
2019-02-12T09:12:22.713Z,2.76
2019-02-12T09:15:19.148Z,2.69
2019-02-12T09:21:10.132Z,3.19
2019-02-12T09:24:00.400Z,3.17
2019-02-12T09:41:01.639Z,4.26
2019-02-12T09:55:27.672Z,3.97
2019-02-12T09:58:11.303Z,4.37
2019-02-12T10:00:46.213Z,5.31
2019-02-12T10:12:42.581Z,5.12
2019-02-12T10:15:48.051Z,5.23
2019-02-12T10:30:23.844Z,4.02
2019-02-12T10:35:29.818Z,4.03
2019-02-12T10:37:58.855Z,3.69
2019-02-12T10:40:28.859Z,3.71
2019-02-12T10:43:06.636Z,3.82
2019-02-12T10:48:12.249Z,3.39
2019-02-12T10:50:41.292Z,3.67
2019-02-12T10:53:11.084Z,3.85
2019-02-12T10:55:40.133Z,4.10
2019-02-12T10:58:09.697Z,4.35
2019-02-12T11:00:38.926Z,4.52
2019-02-12T11:03:07.959Z,4.32
2019-02-12T11:05:45.532Z,4.18
2019-02-12T11:08:14.586Z,4.16
2019-02-12T11:10:45.120Z,4.20
2019-02-12T11:13:12.650Z,3.93
2019-02-12T11:15:41.691Z,4.28
2019-02-12T11:18:11.258Z,4.10
2019-02-12T11:20:40.352Z,3.73
2019-02-12T11:23:10.920Z,3.82
2019-02-12T11:25:42.542Z,3.94
2019-02-12T11:28:11.610Z,3.73
2019-02-12T11:30:41.428Z,4.05
2019-02-12T11:33:23.475Z,4.47
2019-02-12T11:35:54.647Z,4.96
2019-02-12T11:38:24.928Z,6.07
2019-02-12T11:40:59.720Z,6.23
2019-02-12T11:43:30.508Z,6.56
2019-02-12T11:48:34.765Z,5.48
2019-02-12T11:51:05.560Z,5.82
2019-02-12T11:53:38.344Z,5.53
2019-02-12T12:01:23.486Z,6.05
2019-02-12T12:03:53.334Z,6.00
2019-02-12T12:09:04.087Z,5.40
2019-02-12T12:11:40.430Z,5.42
2019-02-12T12:14:09.464Z,5.03
2019-02-12T12:16:39.206Z,4.96
2019-02-12T12:19:08.362Z,4.54
2019-02-12T12:21:37.422Z,4.49
2019-02-12T12:24:06.487Z,4.63
2019-02-12T12:26:35.520Z,4.49
2019-02-12T12:29:04.964Z,4.40
2019-02-12T12:34:09.736Z,4.26
2019-02-12T12:41:58.244Z,4.88
2019-02-12T12:44:27.293Z,4.53
2019-02-12T12:46:57.336Z,4.43
2019-02-12T12:52:02.100Z,4.16
2019-02-12T12:54:32.023Z,4.01
2019-02-12T12:57:02.010Z,3.72
2019-02-12T12:59:31.050Z,3.64
2019-02-12T13:02:00.626Z,3.59
2019-02-12T13:04:29.708Z,3.70
2019-02-12T13:07:02.681Z,3.55
2019-02-12T13:09:33.803Z,3.38
2019-02-12T13:14:39.988Z,3.52
2019-02-12T13:17:09.011Z,3.69
2019-02-12T13:19:38.034Z,3.84
2019-02-12T13:22:07.712Z,3.88
2019-02-12T13:24:37.151Z,4.00
2019-02-12T13:27:06.191Z,4.16
2019-02-12T13:29:35.323Z,3.98
2019-02-12T13:32:04.346Z,4.12
2019-02-12T13:34:34.031Z,4.23
2019-02-12T13:39:18.264Z,4.40
2019-02-12T13:44:34.883Z,4.43
2019-02-12T13:47:03.944Z,4.37
2019-02-12T13:49:33.955Z,4.26
2019-02-12T13:52:03.009Z,4.29
2019-02-12T13:54:33.327Z,4.34
2019-02-12T13:57:02.499Z,4.37
2019-02-12T13:59:33.628Z,4.45
2019-02-12T14:04:37.275Z,5.93
2019-02-12T14:07:12.702Z,6.27
2019-02-12T14:12:19.426Z,7.05
2019-02-12T14:14:48.442Z,7.92
2019-02-12T14:17:17.502Z,7.33
2019-02-12T14:19:47.090Z,6.39
2019-02-12T14:22:16.152Z,5.30
2019-02-12T14:24:46.116Z,4.68
2019-02-12T14:27:15.970Z,4.58
2019-02-12T14:29:45.230Z,4.34
2019-02-12T14:32:14.253Z,4.41
2019-02-12T14:34:48.739Z,4.10
2019-02-12T14:37:17.780Z,4.17
2019-02-12T14:39:47.435Z,4.15
2019-02-12T14:42:16.495Z,3.94
2019-02-12T14:44:45.623Z,3.97
2019-02-12T14:47:14.653Z,4.20
2019-02-12T14:49:43.675Z,4.18
2019-02-12T14:52:13.314Z,4.25
2019-02-12T14:54:47.401Z,4.19
2019-02-12T14:57:21.065Z,4.09
2019-02-12T15:02:26.169Z,4.04
2019-02-12T15:05:00.393Z,3.93
2019-02-12T15:07:24.252Z,3.89
2019-02-12T15:09:55.291Z,3.71
2019-02-12T15:12:24.799Z,3.70
2019-02-12T15:14:53.835Z,3.60
2019-02-12T15:17:22.891Z,3.64
2019-02-12T15:19:51.934Z,3.60
2019-02-12T15:22:25.194Z,3.79
2019-02-12T15:24:54.489Z,3.65
2019-02-12T15:27:30.856Z,3.68
2019-02-12T15:29:59.923Z,3.59
2019-02-12T15:32:32.635Z,3.42
2019-02-12T15:35:02.493Z,3.37
2019-02-12T15:37:33.443Z,3.43
2019-02-12T15:40:02.486Z,3.42
2019-02-12T15:42:31.510Z,3.18
2019-02-12T15:45:02.449Z,3.23
2019-02-12T15:47:33.411Z,3.10
2019-02-12T15:50:02.439Z,2.99
2019-02-12T15:52:33.246Z,3.11
2019-02-12T15:55:02.277Z,3.08
2019-02-12T15:57:40.532Z,2.91
2019-02-12T16:00:18.648Z,2.95
2019-02-12T16:02:47.454Z,2.72
2019-02-12T16:05:16.503Z,2.50
2019-02-12T16:07:47.480Z,2.42
2019-02-12T16:10:16.966Z,2.24
2019-02-12T16:12:46.606Z,2.19
2019-02-12T16:15:16.032Z,2.07
2019-02-12T16:18:00.710Z,1.93
2019-02-12T16:20:30.985Z,1.80
2019-02-12T16:23:00.723Z,1.75
2019-02-12T16:25:30.704Z,1.73
2019-02-12T16:27:59.750Z,1.77
2019-02-12T16:30:33.231Z,1.76
2019-02-12T16:33:02.298Z,1.76
2019-02-12T16:35:31.314Z,1.74
2019-02-12T16:38:00.367Z,1.67
2019-02-12T16:40:35.351Z,1.66
2019-02-12T16:43:06.412Z,1.57
2019-02-12T16:48:30.990Z,1.33
2019-02-12T16:51:01.002Z,1.27
2019-02-12T16:53:30.032Z,1.18
2019-02-12T16:56:07.874Z,1.20
2019-02-12T16:58:28.916Z,1.24
2019-02-12T17:00:57.959Z,1.29
2019-02-12T17:03:33.683Z,1.30
2019-02-12T17:06:03.175Z,1.40
2019-02-12T17:08:32.208Z,1.44
2019-02-12T17:11:01.269Z,1.47
2019-02-12T17:13:30.345Z,1.48
2019-02-12T17:16:00.082Z,1.46
2019-02-12T17:18:29.131Z,1.34
2019-02-12T17:20:58.220Z,1.34
2019-02-12T17:23:27.288Z,1.35
2019-02-12T17:25:56.320Z,1.24
2019-02-12T17:28:26.601Z,1.31
2019-02-12T17:30:59.483Z,1.19
2019-02-12T17:33:28.503Z,1.05
2019-02-12T17:35:57.943Z,1.07
2019-02-12T17:38:27.003Z,0.96
2019-02-12T17:40:56.078Z,0.88
2019-02-12T17:43:25.106Z,0.80
2019-02-12T17:46:02.308Z,0.78
2019-02-12T17:48:34.625Z,0.72
2019-02-12T17:51:03.671Z,0.65
2019-02-12T17:53:32.715Z,0.59
2019-02-12T17:56:01.747Z,0.53
2019-02-12T17:58:30.797Z,0.51
2019-02-12T18:01:00.456Z,0.50
2019-02-12T18:03:29.524Z,0.51
2019-02-12T18:05:58.573Z,0.47
2019-02-12T18:08:28.165Z,0.39
2019-02-12T18:11:01.259Z,0.44
2019-02-12T18:13:30.321Z,0.33
2019-02-12T18:18:34.567Z,0.09
2019-02-12T18:21:04.209Z,0.07
2019-02-12T18:23:34.266Z,0.01
2019-02-12T18:26:03.355Z,-0.03
2019-02-12T18:28:32.442Z,-0.05
2019-02-12T18:33:37.946Z,-0.15
2019-02-12T18:36:07.093Z,-0.23
2019-02-12T18:38:36.119Z,-0.29
2019-02-12T18:41:07.104Z,-0.37
2019-02-12T18:46:11.685Z,-0.43
2019-02-12T18:51:16.466Z,-0.26
2019-02-12T18:53:47.398Z,-0.22
2019-02-12T18:56:16.480Z,-0.25
2019-02-12T18:58:48.663Z,-0.25
2019-02-12T19:01:17.719Z,-0.29
2019-02-12T19:03:46.775Z,-0.25
2019-02-12T19:06:16.290Z,-0.37
2019-02-12T19:08:47.400Z,-0.58
2019-02-12T19:11:16.475Z,-0.68
2019-02-12T19:13:53.856Z,-0.74
2019-02-12T19:16:22.935Z,-0.85
2019-02-12T19:18:52.109Z,-0.88
2019-02-12T19:21:21.168Z,-0.95
2019-02-12T19:23:50.405Z,-1.03
2019-02-12T19:26:20.270Z,-1.04
2019-02-12T19:28:49.351Z,-1.06
2019-02-12T19:31:19.348Z,-1.04
2019-02-12T19:33:55.132Z,-1.11
2019-02-12T19:36:24.298Z,-1.01
2019-02-12T19:38:53.683Z,-1.01
2019-02-12T19:41:22.769Z,-1.12
2019-02-12T19:43:52.837Z,-1.19
2019-02-12T19:46:23.003Z,-1.06
2019-02-12T19:51:31.745Z,-1.07
2019-02-12T19:54:00.794Z,-1.03
2019-02-12T19:56:29.843Z,-0.95
2019-02-12T19:58:59.480Z,-1.01
2019-02-12T20:01:28.582Z,-0.97
2019-02-12T20:03:57.680Z,-1.05
2019-02-12T20:06:27.611Z,-1.14
2019-02-12T20:08:57.636Z,-1.09
2019-02-12T20:11:28.179Z,-1.11
2019-02-12T20:16:34.422Z,-1.21
2019-02-12T20:21:45.498Z,-1.30
2019-02-12T20:24:14.991Z,-1.16
2019-02-12T20:26:44.135Z,-1.20
2019-02-12T20:29:13.187Z,-1.21
2019-02-12T20:31:43.869Z,-1.19
2019-02-12T20:34:12.954Z,-1.16
2019-02-12T20:36:42.004Z,-1.17
2019-02-12T20:39:11.089Z,-1.12
2019-02-12T20:41:40.165Z,-1.14
2019-02-12T20:44:09.745Z,-1.13
2019-02-12T20:46:38.824Z,-1.10
2019-02-12T20:49:09.830Z,-1.14
2019-02-12T20:51:39.883Z,-1.15
2019-02-12T20:54:08.915Z,-1.18
2019-02-12T20:56:39.990Z,-1.27
2019-02-12T20:59:09.058Z,-1.38
2019-02-12T21:01:40.054Z,-1.43
2019-02-12T21:04:09.602Z,-1.52
2019-02-12T21:06:38.643Z,-1.52
2019-02-12T21:09:07.715Z,-1.57
2019-02-12T21:11:36.755Z,-1.62
2019-02-12T21:14:06.307Z,-1.63
2019-02-12T21:16:35.851Z,-1.70
2019-02-12T21:19:05.179Z,-1.67
2019-02-12T21:21:35.403Z,-1.72
2019-02-12T21:24:06.150Z,-1.79
2019-02-12T21:26:35.281Z,-1.74
2019-02-12T21:29:06.742Z,-1.65
2019-02-12T21:31:35.791Z,-1.69
2019-02-12T21:34:04.860Z,-1.75
2019-02-12T21:39:19.777Z,-1.90
2019-02-12T21:41:49.575Z,-1.97
2019-02-12T21:44:19.977Z,-1.94
2019-02-12T21:46:50.668Z,-1.87
2019-02-12T21:49:21.411Z,-1.76
2019-02-12T21:54:27.567Z,-1.68
2019-02-12T21:56:57.166Z,-1.63
2019-02-12T21:59:26.227Z,-1.64
2019-02-12T22:04:35.471Z,-1.57
2019-02-12T22:07:04.826Z,-1.62
2019-02-12T22:10:26.385Z,-1.64
2019-02-12T22:12:55.664Z,-1.77
2019-02-12T22:15:28.812Z,-1.84
2019-02-12T22:17:58.225Z,-1.89
2019-02-12T22:20:32.367Z,-1.91
2019-02-12T22:23:02.084Z,-1.92
2019-02-12T22:25:32.269Z,-1.91
2019-02-12T22:28:03.051Z,-1.97
2019-02-12T22:30:36.701Z,-2.00
2019-02-12T22:33:06.434Z,-2.03
2019-02-12T22:35:42.545Z,-2.06
2019-02-12T22:38:11.845Z,-2.11
2019-02-12T22:40:40.910Z,-2.13
2019-02-12T22:43:11.076Z,-2.12
2019-02-12T22:45:40.301Z,-2.15
2019-02-12T22:48:19.441Z,-2.24
2019-02-12T22:50:48.486Z,-2.20
2019-02-12T22:53:17.648Z,-2.27
2019-02-12T22:55:46.724Z,-2.25
2019-02-12T22:58:15.779Z,-2.40
2019-02-12T23:00:54.813Z,-2.39
2019-02-12T23:03:24.044Z,-2.32
2019-02-12T23:05:53.279Z,-2.32
2019-02-12T23:08:23.353Z,-2.26
2019-02-12T23:13:39.835Z,-2.22
2019-02-12T23:16:09.103Z,-2.16
2019-02-12T23:18:43.383Z,-2.16
2019-02-12T23:21:12.937Z,-2.07
2019-02-12T23:23:42.039Z,-2.10
2019-02-12T23:26:12.103Z,-2.08
2019-02-12T23:28:41.328Z,-2.09
2019-02-12T23:31:11.816Z,-2.17
2019-02-12T23:38:56.991Z,-2.16
2019-02-12T23:41:26.151Z,-2.16
2019-02-12T23:43:55.209Z,-2.06
2019-02-12T23:46:24.858Z,-2.02
2019-02-12T23:51:35.490Z,-2.00
2019-02-12T23:54:04.530Z,-2.08
2019-02-12T23:56:36.974Z,-2.03
2019-02-12T23:59:06.731Z,-1.99
